Flugplatz Salzgitter-Schäferstuhl

Für EDVJ sind keine METAR/TAF Berichte vorhanden.
Es werden die Flugwettermeldungen vom Flugplatz Braunschweig Wolfsburg in 34 km Entfernung angezeigt.

Bericht für EDVE

vom 07.03. um 01:20 UTC

Wind 4 kt aus 290°

Sichtweite 10 km oder mehr

gering bewölkt in 2100 ft

bedeckt in 3800 ft

Temperatur 2.0°C

Taupunkt 2.0°C

Luftfeuchtigkeit 100%

Luftdruck 1027 hPa

EDVE 070120Z AUTO 29004KT 9999 // FEW021/// OVC038/// 02/02 Q1027
Keine Prognose (TAF) verfügbar.
Impressum